createdAt,value
2018-09-04T00:02:25.673Z,78.94
2018-09-04T00:05:30.609Z,79.16
2018-09-04T00:08:35.638Z,79.19
2018-09-04T00:11:40.556Z,78.94
2018-09-04T00:14:45.517Z,78.50
2018-09-04T00:17:50.432Z,79.20
2018-09-04T00:20:55.329Z,78.72
2018-09-04T00:24:00.739Z,79.04
2018-09-04T00:27:05.666Z,78.66
2018-09-04T00:30:10.600Z,79.04
2018-09-04T00:33:15.536Z,79.15
2018-09-04T00:36:20.438Z,78.91
2018-09-04T00:39:25.365Z,79.45
2018-09-04T00:42:30.284Z,79.09
2018-09-04T00:45:35.280Z,79.05
2018-09-04T00:48:40.237Z,79.08
2018-09-04T00:51:45.160Z,78.22
2018-09-04T00:54:50.157Z,78.27
2018-09-04T00:57:55.089Z,79.18
2018-09-04T01:01:00.010Z,78.75
2018-09-04T01:04:05.244Z,78.99
2018-09-04T01:07:10.166Z,79.09
2018-09-04T01:10:15.066Z,79.83
2018-09-04T01:13:20.024Z,80.08
2018-09-04T01:16:24.944Z,79.24
2018-09-04T01:19:29.868Z,80.20
2018-09-04T01:22:34.830Z,80.28
2018-09-04T01:25:39.753Z,80.42
2018-09-04T01:28:44.689Z,80.51
2018-09-04T01:31:49.646Z,79.53
2018-09-04T01:34:54.581Z,79.17
2018-09-04T01:37:59.538Z,80.20
2018-09-04T01:41:04.617Z,78.99
2018-09-04T01:44:09.525Z,78.86
2018-09-04T01:47:14.465Z,80.14
2018-09-04T01:50:19.383Z,79.73
2018-09-04T01:53:24.319Z,80.49
2018-09-04T01:56:29.238Z,80.34
2018-09-04T01:59:34.172Z,80.19
2018-09-04T02:02:39.121Z,79.68
2018-09-04T02:05:44.090Z,80.08
2018-09-04T02:08:49.006Z,79.15
2018-09-04T02:11:54.165Z,79.09
2018-09-04T02:14:59.094Z,79.30
2018-09-04T02:18:04.273Z,79.48
2018-09-04T02:21:09.225Z,78.98
2018-09-04T02:24:14.169Z,79.94
2018-09-04T02:27:25.254Z,80.58
2018-09-04T02:30:30.163Z,79.50
2018-09-04T02:33:35.261Z,80.14
2018-09-04T02:36:40.193Z,80.88
2018-09-04T02:39:45.109Z,80.90
2018-09-04T02:42:50.081Z,79.87
2018-09-04T02:45:55.002Z,80.34
2018-09-04T02:48:59.936Z,80.20
2018-09-04T02:52:05.395Z,80.50
2018-09-04T02:55:10.927Z,81.07
2018-09-04T02:58:15.910Z,80.28
2018-09-04T03:01:20.873Z,80.40
2018-09-04T03:04:25.784Z,80.07
2018-09-04T03:07:30.716Z,80.79
2018-09-04T03:10:35.639Z,79.63
2018-09-04T03:13:40.592Z,80.49
2018-09-04T03:16:45.524Z,79.36
2018-09-04T03:19:50.473Z,80.43
2018-09-04T03:22:55.668Z,79.33
2018-09-04T03:26:00.640Z,80.01
2018-09-04T03:29:05.578Z,80.54
2018-09-04T03:32:10.504Z,80.68
2018-09-04T03:35:15.431Z,79.98
2018-09-04T03:38:20.382Z,79.71
2018-09-04T03:41:25.297Z,79.58
2018-09-04T03:44:30.323Z,79.71
2018-09-04T03:47:35.149Z,80.52
2018-09-04T03:50:40.300Z,79.38
2018-09-04T03:53:45.255Z,79.56
2018-09-04T03:56:50.187Z,80.04
2018-09-04T03:59:55.135Z,80.66
2018-09-04T04:03:00.058Z,79.88
2018-09-04T04:06:05.061Z,80.11
2018-09-04T04:09:10.904Z,80.03
2018-09-04T04:12:15.837Z,80.01
2018-09-04T04:15:20.773Z,79.97
2018-09-04T04:18:25.718Z,80.63
2018-09-04T04:21:30.658Z,79.83
2018-09-04T04:24:35.602Z,79.57
2018-09-04T04:27:40.521Z,80.11
2018-09-04T04:30:45.432Z,80.00
2018-09-04T04:33:50.342Z,80.64
2018-09-04T04:36:55.236Z,80.71
2018-09-04T04:40:00.225Z,80.80
2018-09-04T04:43:05.117Z,81.04
2018-09-04T04:46:10.025Z,81.32
2018-09-04T04:49:14.960Z,80.96
2018-09-04T04:52:19.861Z,80.86
2018-09-04T04:55:24.809Z,80.96
2018-09-04T04:58:29.749Z,80.06
2018-09-04T05:01:34.703Z,80.51
2018-09-04T05:04:39.613Z,80.58
2018-09-04T05:07:44.537Z,80.83
2018-09-04T05:10:49.428Z,80.77
2018-09-04T05:13:54.385Z,80.43
2018-09-04T05:16:59.347Z,79.86
2018-09-04T05:20:04.569Z,79.64
2018-09-04T05:23:09.553Z,80.38
2018-09-04T05:26:14.475Z,80.09
2018-09-04T05:29:19.434Z,80.87
2018-09-04T05:32:31.965Z,80.12
2018-09-04T05:35:43.476Z,81.05
2018-09-04T05:38:48.415Z,80.00
2018-09-04T05:41:53.424Z,79.99
2018-09-04T05:44:58.408Z,80.16
2018-09-04T05:48:18.390Z,80.07
2018-09-04T05:51:23.322Z,80.59
2018-09-04T05:54:28.292Z,80.17
2018-09-04T05:57:33.233Z,80.17
2018-09-04T06:00:52.429Z,81.13
2018-09-04T06:03:57.389Z,81.18
2018-09-04T06:07:02.324Z,80.30
2018-09-04T06:10:07.388Z,80.47
2018-09-04T06:13:12.310Z,79.40
2018-09-04T06:16:17.390Z,79.41
2018-09-04T06:19:22.354Z,79.27
2018-09-04T06:22:27.341Z,79.99
2018-09-04T06:25:32.282Z,80.14
2018-09-04T06:28:37.234Z,79.79
2018-09-04T06:31:42.151Z,80.16
2018-09-04T06:34:47.077Z,79.81
2018-09-04T06:37:51.995Z,80.14
2018-09-04T06:40:56.923Z,79.89
2018-09-04T06:44:01.873Z,79.16
2018-09-04T06:47:06.816Z,79.51
2018-09-04T06:50:11.783Z,79.39
2018-09-04T06:53:16.727Z,79.03
2018-09-04T06:56:21.703Z,79.15
2018-09-04T06:59:26.689Z,79.82
2018-09-04T07:02:31.613Z,79.13
2018-09-04T07:05:36.569Z,80.50
2018-09-04T07:08:41.501Z,79.94
2018-09-04T07:11:46.442Z,79.61
2018-09-04T07:14:51.405Z,79.31
2018-09-04T07:17:56.445Z,77.86
2018-09-04T07:21:01.565Z,76.77
2018-09-04T07:24:06.486Z,76.17
2018-09-04T07:27:11.458Z,76.48
2018-09-04T07:30:16.403Z,76.50
2018-09-04T07:33:21.638Z,74.04
2018-09-04T07:36:26.604Z,73.68
2018-09-04T07:39:31.555Z,72.16
2018-09-04T07:42:36.550Z,71.27
2018-09-04T07:45:41.544Z,70.53
2018-09-04T07:48:46.531Z,69.72
2018-09-04T07:51:51.855Z,68.01
2018-09-04T07:54:56.949Z,68.91
2018-09-04T07:58:01.923Z,69.66
2018-09-04T08:01:06.969Z,68.12
2018-09-04T08:04:11.898Z,67.78
2018-09-04T08:07:16.899Z,67.58
2018-09-04T08:10:21.842Z,68.50
2018-09-04T08:13:26.781Z,68.19
2018-09-04T08:16:31.734Z,68.65
2018-09-04T08:19:36.657Z,68.62
2018-09-04T08:22:41.624Z,67.58
2018-09-04T08:25:46.559Z,67.58
2018-09-04T08:28:51.497Z,67.50
2018-09-04T08:31:56.441Z,66.25
2018-09-04T08:35:02.164Z,64.78
2018-09-04T08:38:07.100Z,65.40
2018-09-04T08:41:12.010Z,65.79
2018-09-04T08:44:16.940Z,65.30
2018-09-04T08:47:21.970Z,64.34
2018-09-04T08:50:27.581Z,64.58
2018-09-04T08:53:32.504Z,64.29
2018-09-04T08:56:37.409Z,64.34
2018-09-04T08:59:42.405Z,64.67
2018-09-04T09:02:47.319Z,64.18
2018-09-04T09:05:52.489Z,63.67
2018-09-04T09:08:57.426Z,64.79
2018-09-04T09:12:02.421Z,62.70
2018-09-04T09:15:07.401Z,61.95
2018-09-04T09:18:12.448Z,60.42
2018-09-04T09:21:17.437Z,59.31
2018-09-04T09:24:22.379Z,59.11
2018-09-04T09:27:27.450Z,59.11
2018-09-04T09:30:33.056Z,57.70
2018-09-04T09:33:38.001Z,57.78
2018-09-04T09:36:43.014Z,58.05
2018-09-04T09:39:47.937Z,58.59
2018-09-04T09:42:52.874Z,58.73
2018-09-04T09:45:57.880Z,55.30
2018-09-04T09:49:02.848Z,54.11
2018-09-04T09:52:07.805Z,51.65
2018-09-04T09:55:12.740Z,49.31
2018-09-04T09:58:17.709Z,46.39
2018-09-04T10:01:28.458Z,46.74
2018-09-04T10:04:33.407Z,48.54
2018-09-04T10:07:38.477Z,50.29
2018-09-04T10:10:43.479Z,51.57
2018-09-04T10:13:49.013Z,52.63
2018-09-04T10:16:53.993Z,53.48
2018-09-04T10:19:59.128Z,54.21
2018-09-04T10:23:04.069Z,54.06
2018-09-04T10:26:09.080Z,55.70
2018-09-04T10:29:14.053Z,52.44
2018-09-04T10:32:19.034Z,52.72
2018-09-04T10:35:24.073Z,53.48
2018-09-04T10:38:29.076Z,51.71
2018-09-04T10:41:34.051Z,50.22
2018-09-04T10:44:39.070Z,49.68
2018-09-04T10:47:44.057Z,47.68
2018-09-04T10:50:49.057Z,45.80
2018-09-04T10:53:54.025Z,44.22
2018-09-04T10:56:59.023Z,42.24
2018-09-04T11:00:04.062Z,40.01
2018-09-04T11:03:09.069Z,40.98
2018-09-04T11:06:14.028Z,42.67
2018-09-04T11:09:19.039Z,41.29
2018-09-04T11:12:23.969Z,41.22
2018-09-04T11:15:28.942Z,43.19
2018-09-04T11:18:33.880Z,44.04
2018-09-04T11:21:38.978Z,44.27
2018-09-04T11:24:43.984Z,44.84
2018-09-04T11:27:48.932Z,45.22
2018-09-04T11:30:53.905Z,43.83
2018-09-04T11:33:58.866Z,44.54
2018-09-04T11:37:03.916Z,45.31
2018-09-04T11:40:09.147Z,46.86
2018-09-04T11:43:14.094Z,46.16
2018-09-04T11:46:19.044Z,47.21
2018-09-04T11:49:24.005Z,47.91
2018-09-04T11:52:29.098Z,47.56
2018-09-04T11:55:33.985Z,49.13
2018-09-04T11:58:39.124Z,50.00
2018-09-04T12:01:47.597Z,48.36
2018-09-04T12:04:52.583Z,45.70
2018-09-04T12:07:57.641Z,45.75
2018-09-04T12:11:02.616Z,46.72
2018-09-04T12:14:07.607Z,47.27
2018-09-04T12:17:12.649Z,47.63
2018-09-04T12:20:34.259Z,47.43
2018-09-04T12:23:39.600Z,48.82
2018-09-04T12:26:44.582Z,47.71
2018-09-04T12:29:49.529Z,49.63
2018-09-04T12:32:54.572Z,47.90
2018-09-04T12:35:59.528Z,47.95
2018-09-04T12:39:05.330Z,47.12
2018-09-04T12:42:10.305Z,47.89
2018-09-04T12:45:15.261Z,47.96
2018-09-04T12:48:24.750Z,47.81
2018-09-04T12:51:29.732Z,46.46
2018-09-04T12:54:34.736Z,47.78
2018-09-04T12:57:39.639Z,46.63
2018-09-04T13:00:45.594Z,46.70
2018-09-04T13:03:50.544Z,45.63
2018-09-04T13:06:55.973Z,46.35
2018-09-04T13:10:01.633Z,44.89
2018-09-04T13:13:06.578Z,44.54
2018-09-04T13:16:11.599Z,43.24
2018-09-04T13:19:16.485Z,43.44
2018-09-04T13:22:21.482Z,43.47
2018-09-04T13:25:26.424Z,41.77
2018-09-04T13:28:32.181Z,42.31
2018-09-04T13:31:37.082Z,42.45
2018-09-04T13:34:41.991Z,43.28
2018-09-04T13:37:46.900Z,44.00
2018-09-04T13:40:57.597Z,44.48
2018-09-04T13:44:02.562Z,43.86
2018-09-04T13:47:07.509Z,44.56
2018-09-04T13:50:12.505Z,45.46
2018-09-04T13:53:17.457Z,45.18
2018-09-04T13:56:22.385Z,45.42
2018-09-04T13:59:27.295Z,44.57
2018-09-04T14:02:32.281Z,45.34
2018-09-04T14:05:37.237Z,45.01
2018-09-04T14:08:42.197Z,44.03
2018-09-04T14:11:47.141Z,45.41
2018-09-04T14:14:52.059Z,44.45
2018-09-04T14:17:57.005Z,43.19
2018-09-04T14:21:02.168Z,43.08
2018-09-04T14:24:07.057Z,44.30
2018-09-04T14:27:12.005Z,44.24
2018-09-04T14:30:16.999Z,43.23
2018-09-04T14:33:21.936Z,43.11
2018-09-04T14:36:26.987Z,43.73
2018-09-04T14:39:31.862Z,42.79
2018-09-04T14:42:36.822Z,43.90
2018-09-04T14:45:41.828Z,43.02
2018-09-04T14:48:46.809Z,43.56
2018-09-04T14:51:51.761Z,43.73
2018-09-04T14:54:56.809Z,43.83
2018-09-04T14:58:01.761Z,44.20
2018-09-04T15:01:06.737Z,43.84
2018-09-04T15:04:11.713Z,43.44
2018-09-04T15:07:16.723Z,44.80
2018-09-04T15:10:21.636Z,46.80
2018-09-04T15:13:26.599Z,43.83
2018-09-04T15:16:31.611Z,43.01
2018-09-04T15:19:36.594Z,44.98
2018-09-04T15:22:41.587Z,44.17
2018-09-04T15:25:46.571Z,43.32
2018-09-04T15:28:51.562Z,42.41
2018-09-04T15:31:56.569Z,42.43
2018-09-04T15:35:01.528Z,42.77
2018-09-04T15:38:06.503Z,42.28
2018-09-04T15:41:11.452Z,41.58
2018-09-04T15:44:16.456Z,42.85
2018-09-04T15:47:21.501Z,41.38
2018-09-04T15:50:26.437Z,43.44
2018-09-04T15:53:31.382Z,42.84
2018-09-04T15:56:36.348Z,43.24
2018-09-04T15:59:41.293Z,43.50
2018-09-04T16:02:46.260Z,43.37
2018-09-04T16:05:51.217Z,41.95
2018-09-04T16:08:56.315Z,42.32
2018-09-04T16:12:01.399Z,42.34
2018-09-04T16:15:06.397Z,42.23
2018-09-04T16:18:11.445Z,41.67
2018-09-04T16:21:16.571Z,40.50
2018-09-04T16:24:21.602Z,41.11
2018-09-04T16:27:26.504Z,41.53
2018-09-04T16:30:31.420Z,40.88
2018-09-04T16:33:36.449Z,41.52
2018-09-04T16:36:41.404Z,41.62
2018-09-04T16:39:46.345Z,41.09
2018-09-04T16:42:52.793Z,41.73
2018-09-04T16:45:58.813Z,43.21
2018-09-04T16:49:04.137Z,44.06
2018-09-04T16:52:09.599Z,44.06
2018-09-04T16:55:14.549Z,44.28
2018-09-04T16:58:19.761Z,45.45
2018-09-04T17:01:24.729Z,44.86
2018-09-04T17:04:29.862Z,46.17
2018-09-04T17:07:34.873Z,46.44
2018-09-04T17:10:40.348Z,46.17
2018-09-04T17:13:45.481Z,47.07
2018-09-04T17:16:51.066Z,47.88
2018-09-04T17:19:56.676Z,48.39
2018-09-04T17:23:01.657Z,49.19
2018-09-04T17:26:06.708Z,49.08
2018-09-04T17:29:11.661Z,49.48
2018-09-04T17:32:16.739Z,49.81
2018-09-04T17:35:22.713Z,50.03
2018-09-04T17:38:27.971Z,51.66
2018-09-04T17:41:33.571Z,51.74
2018-09-04T17:44:38.966Z,51.84
2018-09-04T17:47:44.449Z,52.35
2018-09-04T17:50:49.418Z,52.12
2018-09-04T17:53:54.769Z,52.42
2018-09-04T17:57:00.134Z,53.33
2018-09-04T18:00:06.237Z,55.13
2018-09-04T18:03:11.670Z,56.94
2018-09-04T18:06:16.661Z,57.48
2018-09-04T18:09:21.692Z,58.42
2018-09-04T18:12:26.776Z,58.62
2018-09-04T18:15:31.858Z,58.93
2018-09-04T18:18:37.129Z,59.35
2018-09-04T18:21:42.397Z,59.70
2018-09-04T18:24:47.542Z,59.91
2018-09-04T18:27:52.491Z,59.53
2018-09-04T18:30:57.476Z,61.10
2018-09-04T18:34:03.827Z,60.31
2018-09-04T18:37:08.837Z,61.33
2018-09-04T18:40:13.990Z,62.21
2018-09-04T18:43:18.918Z,61.80
2018-09-04T18:46:24.341Z,61.00
2018-09-04T18:49:29.267Z,62.05
2018-09-04T18:52:34.351Z,60.99
2018-09-04T18:55:39.330Z,61.39
2018-09-04T18:58:44.258Z,61.29
2018-09-04T19:01:49.725Z,61.65
2018-09-04T19:04:55.102Z,62.62
2018-09-04T19:08:00.313Z,62.33
2018-09-04T19:11:05.449Z,64.05
2018-09-04T19:14:10.816Z,64.30
2018-09-04T19:17:15.738Z,64.63
2018-09-04T19:20:21.025Z,64.55
2018-09-04T19:23:25.935Z,65.25
2018-09-04T19:26:31.060Z,65.25
2018-09-04T19:29:36.461Z,64.00
2018-09-04T19:32:41.666Z,64.89
2018-09-04T19:35:46.598Z,65.11
2018-09-04T19:38:51.566Z,66.16
2018-09-04T19:41:56.515Z,65.09
2018-09-04T19:45:01.841Z,64.89
2018-09-04T19:48:06.899Z,64.75
2018-09-04T19:51:11.942Z,65.88
2018-09-04T19:54:17.258Z,64.61
2018-09-04T19:57:22.358Z,66.04
2018-09-04T20:00:27.697Z,65.67
2018-09-04T20:03:32.971Z,66.46
2018-09-04T20:06:38.219Z,66.78
2018-09-04T20:09:43.189Z,66.40
2018-09-04T20:12:48.585Z,66.46
2018-09-04T20:15:53.536Z,65.90
2018-09-04T20:18:58.957Z,65.78
2018-09-04T20:22:05.826Z,67.02
2018-09-04T20:25:12.197Z,66.14
2018-09-04T20:28:17.178Z,66.25
2018-09-04T20:31:22.138Z,66.81
2018-09-04T20:34:27.356Z,67.04
2018-09-04T20:37:32.814Z,67.13
2018-09-04T20:40:37.946Z,67.55
2018-09-04T20:43:43.393Z,67.70
2018-09-04T20:46:48.419Z,67.96
2018-09-04T20:49:53.464Z,67.80
2018-09-04T20:52:58.439Z,68.37
2018-09-04T20:56:03.405Z,67.86
2018-09-04T20:59:20.217Z,68.37
2018-09-04T21:02:36.849Z,68.52
2018-09-04T21:05:53.509Z,69.79
2018-09-04T21:09:05.084Z,69.11
2018-09-04T21:12:10.040Z,69.05
2018-09-04T21:15:14.966Z,69.25
2018-09-04T21:18:19.897Z,68.28
2018-09-04T21:21:24.852Z,67.82
2018-09-04T21:24:29.841Z,68.81
2018-09-04T21:27:34.794Z,68.77
2018-09-04T21:30:39.763Z,68.27
2018-09-04T21:33:44.717Z,69.07
2018-09-04T21:36:49.687Z,69.95
2018-09-04T21:39:54.622Z,70.35
2018-09-04T21:42:59.565Z,70.77
2018-09-04T21:46:04.620Z,69.78
2018-09-04T21:49:09.576Z,69.73
2018-09-04T21:52:14.508Z,69.64
2018-09-04T21:55:19.447Z,70.50
2018-09-04T22:02:10.862Z,71.87
2018-09-04T22:05:15.884Z,70.51
2018-09-04T22:08:20.848Z,71.27
2018-09-04T22:11:25.820Z,70.50
2018-09-04T22:14:30.788Z,71.41
2018-09-04T22:17:36.502Z,71.22
2018-09-04T22:20:41.445Z,71.46
2018-09-04T22:23:46.372Z,70.68
2018-09-04T22:26:51.306Z,70.74
2018-09-04T22:29:56.220Z,71.06
2018-09-04T22:33:01.141Z,71.63
2018-09-04T22:36:06.329Z,72.61
2018-09-04T22:39:11.259Z,71.69
2018-09-04T22:42:16.165Z,72.46
2018-09-04T22:45:21.096Z,71.76
2018-09-04T22:48:26.004Z,71.59
2018-09-04T22:51:37.452Z,72.77
2018-09-04T22:54:42.389Z,72.24
2018-09-04T22:57:47.313Z,72.50
2018-09-04T23:00:52.280Z,72.45
2018-09-04T23:03:57.637Z,72.84
2018-09-04T23:07:02.595Z,72.80
2018-09-04T23:10:07.660Z,73.06
2018-09-04T23:13:12.585Z,72.99
2018-09-04T23:16:17.548Z,74.42
2018-09-04T23:19:22.457Z,74.30
2018-09-04T23:22:27.403Z,75.11
2018-09-04T23:25:32.321Z,73.98
2018-09-04T23:28:37.245Z,74.15
2018-09-04T23:31:42.152Z,74.48
2018-09-04T23:34:47.065Z,73.39
2018-09-04T23:37:51.980Z,74.23
2018-09-04T23:40:56.897Z,74.20
2018-09-04T23:44:01.876Z,74.62
2018-09-04T23:47:06.813Z,75.45
2018-09-04T23:50:11.748Z,74.87
2018-09-04T23:53:16.677Z,75.02
2018-09-04T23:56:21.624Z,74.49
2018-09-04T23:59:26.537Z,74.52
